createdAt,value
2018-09-02T00:01:25.158Z,14.40
2018-09-02T00:04:36.743Z,14.20
2018-09-02T00:07:49.853Z,14.30
2018-09-02T00:11:01.184Z,14.20
2018-09-02T00:14:12.422Z,14.20
2018-09-02T00:17:23.633Z,14.20
2018-09-02T00:20:35.444Z,14.10
2018-09-02T00:23:47.365Z,14.10
2018-09-02T00:26:59.489Z,14.10
2018-09-02T00:30:11.831Z,14.10
2018-09-02T00:33:23.935Z,14.10
2018-09-02T00:36:35.697Z,14.10
2018-09-02T00:39:47.637Z,14.00
2018-09-02T00:42:58.905Z,14.00
2018-09-02T00:46:11.204Z,13.90
2018-09-02T00:49:22.544Z,14.00
2018-09-02T00:52:34.745Z,14.00
2018-09-02T00:55:46.690Z,13.90
2018-09-02T00:58:58.514Z,13.80
2018-09-02T01:02:10.371Z,13.90
2018-09-02T01:05:22.357Z,13.90
2018-09-02T01:08:34.292Z,13.90
2018-09-02T01:11:46.097Z,13.90
2018-09-02T01:14:57.279Z,13.90
2018-09-02T01:18:08.353Z,13.90
2018-09-02T01:21:19.846Z,13.90
2018-09-02T01:24:31.957Z,13.80
2018-09-02T01:27:44.078Z,13.70
2018-09-02T01:30:55.086Z,13.70
2018-09-02T01:34:07.175Z,13.70
2018-09-02T01:37:19.387Z,13.70
2018-09-02T01:40:32.086Z,13.70
2018-09-02T01:43:43.622Z,13.70
2018-09-02T01:46:55.777Z,13.60
2018-09-02T01:50:07.829Z,13.60
2018-09-02T01:53:19.972Z,13.60
2018-09-02T01:56:31.908Z,13.50
2018-09-02T01:59:43.905Z,13.50
2018-09-02T02:02:55.538Z,13.40
2018-09-02T02:06:07.237Z,13.40
2018-09-02T02:09:18.601Z,13.40
2018-09-02T02:12:30.632Z,13.50
2018-09-02T02:15:41.944Z,13.40
2018-09-02T02:18:53.408Z,13.40
2018-09-02T02:22:04.786Z,13.40
2018-09-02T02:25:16.554Z,13.40
2018-09-02T02:28:28.725Z,13.50
2018-09-02T02:31:39.799Z,13.40
2018-09-02T02:34:51.503Z,13.50
2018-09-02T02:38:03.593Z,13.50
2018-09-02T02:41:15.850Z,13.40
2018-09-02T02:44:27.723Z,13.30
2018-09-02T02:47:39.903Z,13.40
2018-09-02T02:50:51.608Z,13.40
2018-09-02T02:54:03.061Z,13.40
2018-09-02T02:57:15.086Z,13.40
2018-09-02T03:00:26.424Z,13.40
2018-09-02T03:03:37.918Z,13.40
2018-09-02T03:06:50.041Z,13.30
2018-09-02T03:10:02.095Z,13.40
2018-09-02T03:13:13.411Z,13.40
2018-09-02T03:16:25.195Z,13.30
2018-09-02T03:19:37.135Z,13.30
2018-09-02T03:22:49.123Z,13.30
2018-09-02T03:26:00.959Z,13.40
2018-09-02T03:29:12.930Z,13.30
2018-09-02T03:32:24.753Z,13.20
2018-09-02T03:35:36.722Z,13.30
2018-09-02T03:38:48.044Z,13.30
2018-09-02T03:42:00.291Z,13.30
2018-09-02T03:45:12.397Z,13.30
2018-09-02T03:48:24.464Z,13.30
2018-09-02T03:51:36.676Z,13.40
2018-09-02T03:54:47.862Z,13.30
2018-09-02T03:57:59.708Z,13.30
2018-09-02T04:01:11.481Z,13.30
2018-09-02T04:04:24.173Z,13.30
2018-09-02T04:07:35.861Z,13.30
2018-09-02T04:10:47.077Z,13.30
2018-09-02T04:13:58.554Z,13.30
2018-09-02T04:17:10.027Z,13.30
2018-09-02T04:20:26.279Z,13.30
2018-09-02T04:23:37.560Z,13.30
2018-09-02T04:26:49.241Z,13.30
2018-09-02T04:30:00.847Z,13.20
2018-09-02T04:33:12.180Z,13.20
2018-09-02T04:36:24.492Z,13.20
2018-09-02T04:39:36.579Z,13.20
2018-09-02T04:42:47.974Z,13.20
2018-09-02T04:46:00.103Z,13.20
2018-09-02T04:49:12.303Z,13.20
2018-09-02T04:52:23.984Z,13.20
2018-09-02T04:55:35.676Z,13.20
2018-09-02T04:58:46.867Z,13.20
2018-09-02T05:01:58.290Z,13.30
2018-09-02T05:05:09.795Z,13.20
2018-09-02T05:08:21.410Z,13.20
2018-09-02T05:11:32.884Z,13.20
2018-09-02T05:14:44.761Z,13.20
2018-09-02T05:17:56.691Z,13.20
2018-09-02T05:21:09.534Z,13.20
2018-09-02T05:24:21.672Z,13.30
2018-09-02T05:27:33.760Z,13.30
2018-09-02T05:30:45.767Z,13.30
2018-09-02T05:33:57.222Z,13.30
2018-09-02T05:37:09.093Z,13.20
2018-09-02T05:40:20.531Z,13.10
2018-09-02T05:43:31.713Z,13.20
2018-09-02T05:46:43.197Z,13.20
2018-09-02T05:49:55.403Z,13.10
2018-09-02T05:53:07.057Z,13.20
2018-09-02T05:56:18.566Z,13.20
2018-09-02T05:59:30.016Z,13.20
2018-09-02T06:02:42.202Z,13.20
2018-09-02T06:05:54.265Z,13.20
2018-09-02T06:09:08.355Z,13.20
2018-09-02T06:12:20.120Z,13.10
2018-09-02T06:15:32.019Z,13.10
2018-09-02T06:18:44.433Z,13.10
2018-09-02T06:21:56.457Z,13.10
2018-09-02T06:25:08.774Z,13.10
2018-09-02T06:28:20.811Z,13.20
2018-09-02T06:31:33.612Z,13.10
2018-09-02T06:34:45.087Z,13.10
2018-09-02T06:37:57.049Z,13.10
2018-09-02T06:41:08.817Z,13.10
2018-09-02T06:44:20.055Z,13.10
2018-09-02T06:47:31.724Z,13.20
2018-09-02T06:50:43.146Z,13.10
2018-09-02T06:53:54.795Z,13.10
2018-09-02T06:57:07.240Z,13.10
2018-09-02T07:00:18.604Z,13.10
2018-09-02T07:03:30.522Z,13.20
2018-09-02T07:06:42.335Z,13.20
2018-09-02T07:09:54.584Z,13.20
2018-09-02T07:13:06.499Z,13.20
2018-09-02T07:16:18.300Z,13.30
2018-09-02T07:19:30.129Z,13.30
2018-09-02T07:22:41.935Z,13.30
2018-09-02T07:25:53.779Z,13.40
2018-09-02T07:29:05.209Z,13.40
2018-09-02T07:32:17.133Z,13.40
2018-09-02T07:35:28.542Z,13.40
2018-09-02T07:38:40.483Z,13.40
2018-09-02T07:41:51.990Z,13.40
2018-09-02T07:45:04.134Z,13.40
2018-09-02T07:48:15.377Z,13.50
2018-09-02T07:51:27.355Z,13.50
2018-09-02T07:54:39.237Z,13.50
2018-09-02T07:57:51.186Z,13.50
2018-09-02T08:01:03.472Z,13.50
2018-09-02T08:04:15.271Z,13.60
2018-09-02T08:07:27.443Z,13.60
2018-09-02T08:10:39.538Z,13.60
2018-09-02T08:13:51.341Z,13.70
2018-09-02T08:17:02.614Z,13.60
2018-09-02T08:20:14.772Z,13.70
2018-09-02T08:23:26.836Z,13.60
2018-09-02T08:26:38.635Z,13.60
2018-09-02T08:29:50.330Z,13.60
2018-09-02T08:33:02.334Z,13.70
2018-09-02T08:36:15.172Z,13.70
2018-09-02T08:39:26.941Z,13.70
2018-09-02T08:42:38.129Z,13.70
2018-09-02T08:45:50.061Z,13.70
2018-09-02T08:49:01.453Z,13.70
2018-09-02T08:52:13.024Z,13.70
2018-09-02T08:55:24.546Z,13.70
2018-09-02T08:58:36.363Z,13.70
2018-09-02T09:01:47.674Z,13.60
2018-09-02T09:05:00.433Z,13.70
2018-09-02T09:08:12.622Z,13.70
2018-09-02T09:11:24.832Z,13.80
2018-09-02T09:14:37.012Z,13.70
2018-09-02T09:17:48.405Z,13.80
2018-09-02T09:21:00.144Z,13.80
2018-09-02T09:24:11.386Z,13.90
2018-09-02T09:27:23.182Z,13.90
2018-09-02T09:30:35.249Z,13.90
2018-09-02T09:33:46.890Z,14.00
2018-09-02T09:36:58.809Z,14.00
2018-09-02T09:40:10.787Z,14.00
2018-09-02T09:43:22.411Z,14.00
2018-09-02T09:46:34.433Z,14.00
2018-09-02T09:49:45.720Z,14.00
2018-09-02T09:52:57.917Z,14.00
2018-09-02T09:56:09.625Z,14.10
2018-09-02T09:59:22.875Z,14.10
2018-09-02T10:02:34.032Z,14.10
2018-09-02T10:05:45.750Z,14.10
2018-09-02T10:08:57.142Z,14.10
2018-09-02T10:12:08.989Z,14.20
2018-09-02T10:15:21.310Z,14.20
2018-09-02T10:18:32.793Z,14.20
2018-09-02T10:21:43.971Z,14.20
2018-09-02T10:24:56.142Z,14.30
2018-09-02T10:28:08.117Z,14.30
2018-09-02T10:31:20.142Z,14.30
2018-09-02T10:34:32.105Z,14.20
2018-09-02T10:37:43.770Z,14.30
2018-09-02T10:40:55.901Z,14.30
2018-09-02T10:44:07.529Z,14.30
2018-09-02T10:47:19.520Z,14.40
2018-09-02T10:50:31.638Z,14.40
2018-09-02T10:53:45.773Z,14.40
2018-09-02T10:56:57.912Z,14.40
2018-09-02T11:00:11.786Z,14.50
2018-09-02T11:03:23.089Z,14.50
2018-09-02T11:06:35.032Z,14.50
2018-09-02T11:09:46.797Z,14.60
2018-09-02T11:12:58.487Z,14.60
2018-09-02T11:16:10.529Z,14.60
2018-09-02T11:19:22.286Z,14.60
2018-09-02T11:22:34.296Z,14.70
2018-09-02T11:25:45.918Z,14.70
2018-09-02T11:28:57.425Z,14.80
2018-09-02T11:32:09.463Z,14.70
2018-09-02T11:35:20.894Z,14.70
2018-09-02T11:38:32.806Z,14.80
2018-09-02T11:41:44.874Z,14.70
2018-09-02T11:44:56.886Z,14.80
2018-09-02T11:48:08.394Z,14.80
2018-09-02T11:51:19.561Z,14.90
2018-09-02T11:54:31.093Z,14.90
2018-09-02T11:57:43.020Z,14.90
2018-09-02T12:00:54.914Z,14.90
2018-09-02T12:04:06.841Z,14.90
2018-09-02T12:07:18.329Z,14.80
2018-09-02T12:10:30.187Z,14.80
2018-09-02T12:13:41.327Z,14.80
2018-09-02T12:20:03.861Z,14.90
2018-09-02T12:23:15.809Z,14.90
2018-09-02T12:26:27.042Z,14.90
2018-09-02T12:29:38.224Z,15.00
2018-09-02T12:32:49.419Z,15.00
2018-09-02T12:36:01.117Z,15.00
2018-09-02T12:39:12.336Z,15.00
2018-09-02T12:42:24.056Z,15.00
2018-09-02T12:45:35.999Z,15.00
2018-09-02T12:48:47.803Z,15.00
2018-09-02T12:51:59.686Z,15.10
2018-09-02T12:55:12.298Z,15.10
2018-09-02T12:58:24.891Z,15.10
2018-09-02T13:01:36.449Z,15.10
2018-09-02T13:04:48.439Z,15.20
2018-09-02T13:07:59.625Z,15.10
2018-09-02T13:11:10.820Z,15.10
2018-09-02T13:14:22.920Z,15.20
2018-09-02T13:17:35.517Z,15.20
2018-09-02T13:20:47.047Z,15.20
2018-09-02T13:23:58.938Z,15.30
2018-09-02T13:27:10.451Z,15.20
2018-09-02T13:30:21.720Z,15.30
2018-09-02T13:33:33.691Z,15.20
2018-09-02T13:36:44.810Z,15.30
2018-09-02T13:39:56.924Z,15.20
2018-09-02T13:43:08.407Z,15.10
2018-09-02T13:46:20.252Z,15.10
2018-09-02T13:49:31.766Z,15.20
2018-09-02T13:52:43.872Z,15.20
2018-09-02T13:55:56.340Z,15.20
2018-09-02T13:59:08.119Z,15.20
2018-09-02T14:02:19.352Z,15.20
2018-09-02T14:05:30.675Z,15.30
2018-09-02T14:08:42.697Z,15.20
2018-09-02T14:11:54.861Z,15.30
2018-09-02T14:15:07.656Z,15.20
2018-09-02T14:18:19.301Z,15.30
2018-09-02T14:21:31.384Z,15.30
2018-09-02T14:24:43.403Z,15.40
2018-09-02T14:27:55.252Z,15.30
2018-09-02T14:31:06.449Z,15.30
2018-09-02T14:34:18.141Z,15.30
2018-09-02T14:37:30.349Z,15.40
2018-09-02T14:40:43.712Z,15.40
2018-09-02T14:43:56.016Z,15.40
2018-09-02T14:47:08.139Z,15.40
2018-09-02T14:50:20.973Z,15.40
2018-09-02T14:53:32.491Z,15.40
2018-09-02T14:56:44.832Z,15.30
2018-09-02T14:59:56.880Z,15.30
2018-09-02T15:03:08.569Z,15.30
2018-09-02T15:06:20.481Z,15.40
2018-09-02T15:09:32.357Z,15.30
2018-09-02T15:12:43.893Z,15.30
2018-09-02T15:15:55.627Z,15.30
2018-09-02T15:19:07.210Z,15.30
2018-09-02T15:22:20.652Z,15.30
2018-09-02T15:25:32.428Z,15.40
2018-09-02T15:28:43.858Z,15.40
2018-09-02T15:31:55.738Z,15.40
2018-09-02T15:35:16.030Z,15.30
2018-09-02T15:38:32.545Z,15.30
2018-09-02T15:41:44.756Z,15.40
2018-09-02T15:44:56.077Z,15.40
2018-09-02T15:48:09.502Z,15.40
2018-09-02T15:51:21.035Z,15.40
2018-09-02T15:54:36.943Z,15.40
2018-09-02T15:57:51.077Z,15.40
2018-09-02T16:01:05.036Z,15.40
2018-09-02T16:04:18.965Z,15.40
2018-09-02T16:07:32.802Z,15.40
2018-09-02T16:10:45.347Z,15.40
2018-09-02T16:13:57.435Z,15.40
2018-09-02T16:17:10.682Z,15.40
2018-09-02T16:20:23.285Z,15.40
2018-09-02T16:23:35.523Z,15.40
2018-09-02T16:26:47.087Z,15.40
2018-09-02T16:29:59.071Z,15.40
2018-09-02T16:33:10.997Z,15.40
2018-09-02T16:36:22.862Z,15.40
2018-09-02T16:39:34.555Z,15.40
2018-09-02T16:42:46.179Z,15.40
2018-09-02T16:45:58.072Z,15.40
2018-09-02T16:49:10.563Z,15.40
2018-09-02T16:52:22.673Z,15.40
2018-09-02T16:55:34.743Z,15.30
2018-09-02T16:58:47.640Z,15.30
2018-09-02T17:01:58.893Z,15.30
2018-09-02T17:05:15.986Z,15.30
2018-09-02T17:08:28.313Z,15.30
2018-09-02T17:11:40.363Z,15.30
2018-09-02T17:14:52.427Z,15.30
2018-09-02T17:18:03.862Z,15.30
2018-09-02T17:21:15.654Z,15.40
2018-09-02T17:24:26.726Z,15.40
2018-09-02T17:27:37.980Z,15.40
2018-09-02T17:30:49.748Z,15.40
2018-09-02T17:34:00.986Z,15.40
2018-09-02T17:37:12.117Z,15.40
2018-09-02T17:40:24.069Z,15.40
2018-09-02T17:43:35.151Z,15.40
2018-09-02T17:46:46.386Z,15.40
2018-09-02T17:49:58.447Z,15.40
2018-09-02T17:53:10.656Z,15.40
2018-09-02T17:56:23.133Z,15.40
2018-09-02T17:59:35.478Z,15.40
2018-09-02T18:02:47.730Z,15.40
2018-09-02T18:05:59.684Z,15.40
2018-09-02T18:09:12.298Z,15.50
2018-09-02T18:12:23.750Z,15.40
2018-09-02T18:15:35.495Z,15.30
2018-09-02T18:18:47.839Z,15.30
2018-09-02T18:22:00.154Z,15.30
2018-09-02T18:25:12.552Z,15.40
2018-09-02T18:28:28.420Z,15.40
2018-09-02T18:31:40.683Z,15.50
2018-09-02T18:34:52.352Z,15.60
2018-09-02T18:38:03.949Z,15.50
2018-09-02T18:41:15.528Z,15.50
2018-09-02T18:44:26.755Z,15.60
2018-09-02T18:47:39.219Z,15.50
2018-09-02T18:50:50.448Z,15.50
2018-09-02T18:54:02.162Z,15.50
2018-09-02T18:57:13.688Z,15.50
2018-09-02T19:00:26.066Z,15.50
2018-09-02T19:03:37.734Z,15.50
2018-09-02T19:06:48.809Z,15.50
2018-09-02T19:10:00.361Z,15.50
2018-09-02T19:13:12.610Z,15.60
2018-09-02T19:16:23.639Z,15.50
2018-09-02T19:19:35.393Z,15.60
2018-09-02T19:22:46.400Z,15.60
2018-09-02T19:25:58.229Z,15.60
2018-09-02T19:29:10.271Z,15.60
2018-09-02T19:32:22.021Z,15.60
2018-09-02T19:35:34.019Z,15.60
2018-09-02T19:38:45.715Z,15.70
2018-09-02T19:41:57.757Z,15.60
2018-09-02T19:45:10.126Z,15.70
2018-09-02T19:48:21.229Z,15.70
2018-09-02T19:51:32.744Z,15.60
2018-09-02T19:54:44.884Z,15.60
2018-09-02T19:57:57.662Z,15.50
2018-09-02T20:01:09.235Z,15.50
2018-09-02T20:04:20.753Z,15.50
2018-09-02T20:07:33.102Z,15.50
2018-09-02T20:10:44.316Z,15.60
2018-09-02T20:13:56.221Z,15.50
2018-09-02T20:17:07.931Z,15.60
2018-09-02T20:20:19.674Z,15.70
2018-09-02T20:23:31.805Z,15.60
2018-09-02T20:26:42.798Z,15.60
2018-09-02T20:29:54.935Z,15.60
2018-09-02T20:33:05.898Z,15.60
2018-09-02T20:36:17.091Z,15.50
2018-09-02T20:39:28.394Z,15.50
2018-09-02T20:42:39.672Z,15.50
2018-09-02T20:45:51.034Z,15.60
2018-09-02T20:49:02.521Z,15.50
2018-09-02T20:52:13.631Z,15.50
2018-09-02T20:55:24.680Z,15.40
2018-09-02T20:58:36.172Z,15.40
2018-09-02T21:01:47.964Z,15.40
2018-09-02T21:04:59.037Z,15.40
2018-09-02T21:08:10.565Z,15.40
2018-09-02T21:11:22.339Z,15.40
2018-09-02T21:14:34.340Z,15.40
2018-09-02T21:17:45.985Z,15.50
2018-09-02T21:20:57.303Z,15.40
2018-09-02T21:24:08.593Z,15.40
2018-09-02T21:27:20.197Z,15.40
2018-09-02T21:30:31.347Z,15.40
2018-09-02T21:33:42.506Z,15.50
2018-09-02T21:36:53.633Z,15.40
2018-09-02T21:40:06.114Z,15.50
2018-09-02T21:43:17.978Z,15.50
2018-09-02T21:46:29.321Z,15.50
2018-09-02T21:49:40.679Z,15.60
2018-09-02T21:52:52.006Z,15.60
2018-09-02T21:56:03.464Z,15.70
2018-09-02T21:59:14.736Z,15.60
2018-09-02T22:02:26.884Z,15.70
2018-09-02T22:05:38.512Z,15.70
2018-09-02T22:08:50.377Z,15.60
2018-09-02T22:12:02.254Z,15.60
2018-09-02T22:15:14.204Z,15.60
2018-09-02T22:18:25.436Z,15.70
2018-09-02T22:21:36.952Z,15.70
2018-09-02T22:24:48.537Z,15.60
2018-09-02T22:28:00.341Z,15.60
2018-09-02T22:31:12.909Z,15.50
2018-09-02T22:34:24.005Z,15.50
2018-09-02T22:37:35.282Z,15.50
2018-09-02T22:40:46.460Z,15.50
2018-09-02T22:43:58.233Z,15.50
2018-09-02T22:47:10.240Z,15.50
2018-09-02T22:50:22.202Z,15.60
2018-09-02T22:53:34.247Z,15.50
2018-09-02T22:56:45.439Z,15.40
2018-09-02T22:59:56.919Z,15.40
2018-09-02T23:03:08.525Z,15.40
2018-09-02T23:06:20.175Z,15.40
2018-09-02T23:09:31.245Z,15.40
2018-09-02T23:12:42.343Z,15.40
2018-09-02T23:15:53.861Z,15.30
2018-09-02T23:19:05.582Z,15.30
2018-09-02T23:22:18.205Z,15.30
2018-09-02T23:25:29.944Z,15.30
2018-09-02T23:28:41.117Z,15.30
2018-09-02T23:31:53.002Z,15.20
2018-09-02T23:35:04.413Z,15.30
2018-09-02T23:38:15.949Z,15.30
2018-09-02T23:41:27.742Z,15.30
2018-09-02T23:44:39.399Z,15.30
2018-09-02T23:47:50.552Z,15.30
2018-09-02T23:51:01.798Z,15.40
2018-09-02T23:54:12.958Z,15.40
2018-09-02T23:57:24.620Z,15.40
